createdAt,value
2022-07-29T00:01:43.864Z,56.56
2022-07-29T00:04:11.936Z,56.93
2022-07-29T00:06:39.912Z,56.58
2022-07-29T00:09:08.300Z,56.24
2022-07-29T00:11:37.508Z,56.50
2022-07-29T00:14:06.797Z,56.49
2022-07-29T00:16:34.755Z,56.41
2022-07-29T00:19:02.701Z,56.35
2022-07-29T00:21:30.716Z,57.19
2022-07-29T00:23:58.547Z,56.95
2022-07-29T00:26:28.657Z,57.90
2022-07-29T00:29:23.711Z,58.55
2022-07-29T00:31:45.720Z,59.41
2022-07-29T00:34:27.601Z,59.14
2022-07-29T00:36:55.423Z,59.47
2022-07-29T00:39:23.529Z,59.20
2022-07-29T00:41:51.957Z,59.48
2022-07-29T00:44:22.431Z,59.62
2022-07-29T00:46:50.319Z,59.76
2022-07-29T00:49:18.461Z,59.69
2022-07-29T00:51:46.445Z,59.96
2022-07-29T00:54:14.917Z,59.95
2022-07-29T00:56:42.988Z,60.02
2022-07-29T00:59:10.836Z,59.66
2022-07-29T01:01:40.108Z,59.19
2022-07-29T01:04:09.043Z,59.08
2022-07-29T01:06:37.170Z,58.87
2022-07-29T01:09:05.162Z,59.71
2022-07-29T01:11:33.382Z,60.03
2022-07-29T01:14:03.131Z,60.15
2022-07-29T01:16:34.794Z,60.05
2022-07-29T01:19:14.997Z,60.71
2022-07-29T01:21:53.331Z,60.57
2022-07-29T01:24:41.843Z,61.00
2022-07-29T01:27:28.340Z,61.31
2022-07-29T01:30:01.675Z,61.60
2022-07-29T01:32:37.275Z,62.08
2022-07-29T01:35:10.761Z,62.26
2022-07-29T01:37:45.155Z,62.52
2022-07-29T01:40:20.474Z,62.38
2022-07-29T01:42:52.639Z,62.49
2022-07-29T01:45:26.891Z,62.87
2022-07-29T01:48:02.417Z,62.64
2022-07-29T01:50:35.297Z,62.66
2022-07-29T01:53:06.555Z,62.72
2022-07-29T01:55:38.746Z,62.98
2022-07-29T01:58:07.688Z,63.10
2022-07-29T02:00:38.023Z,63.18
2022-07-29T02:03:11.251Z,63.15
2022-07-29T02:05:41.043Z,62.79
2022-07-29T02:08:10.146Z,63.35
2022-07-29T02:10:44.300Z,63.20
2022-07-29T02:13:14.688Z,63.57
2022-07-29T02:15:45.454Z,63.38
2022-07-29T02:18:17.465Z,63.81
2022-07-29T02:20:48.960Z,63.84
2022-07-29T02:23:20.519Z,64.06
2022-07-29T02:25:50.912Z,63.54
2022-07-29T02:28:22.208Z,64.03
2022-07-29T02:30:54.248Z,64.34
2022-07-29T02:33:23.800Z,64.61
2022-07-29T02:35:53.901Z,64.51
2022-07-29T02:38:41.885Z,64.42
2022-07-29T02:41:13.948Z,64.27
2022-07-29T02:43:44.174Z,64.09
2022-07-29T02:46:28.737Z,63.38
2022-07-29T02:49:03.396Z,63.79
2022-07-29T02:51:43.673Z,63.33
2022-07-29T02:54:23.606Z,63.24
2022-07-29T02:56:54.639Z,63.15
2022-07-29T02:59:27.015Z,63.22
2022-07-29T03:01:57.357Z,63.56
2022-07-29T03:04:29.365Z,63.50
2022-07-29T03:07:01.383Z,63.52
2022-07-29T03:09:30.034Z,63.51
2022-07-29T03:11:59.009Z,63.31
2022-07-29T03:14:27.483Z,63.32
2022-07-29T03:16:57.223Z,63.06
2022-07-29T03:19:25.138Z,63.76
2022-07-29T03:21:53.721Z,64.17
2022-07-29T03:24:33.170Z,64.07
2022-07-29T03:27:01.421Z,64.61
2022-07-29T03:29:33.008Z,63.71
2022-07-29T03:32:07.200Z,64.11
2022-07-29T03:34:35.924Z,64.14
2022-07-29T03:37:03.755Z,64.86
2022-07-29T03:39:35.215Z,64.28
2022-07-29T03:42:04.086Z,64.07
2022-07-29T03:44:33.892Z,64.47
2022-07-29T03:47:04.290Z,64.84
2022-07-29T03:49:34.278Z,65.13
2022-07-29T03:52:02.498Z,64.41
2022-07-29T03:54:30.312Z,64.05
2022-07-29T03:57:01.691Z,64.83
2022-07-29T03:59:29.785Z,65.01
2022-07-29T04:01:58.936Z,65.68
2022-07-29T04:04:28.707Z,65.49
2022-07-29T04:06:56.604Z,65.56
2022-07-29T04:09:24.499Z,65.37
2022-07-29T04:12:03.481Z,65.23
2022-07-29T04:14:32.778Z,64.89
2022-07-29T04:17:00.836Z,64.46
2022-07-29T04:19:30.207Z,64.39
2022-07-29T04:21:59.258Z,65.05
2022-07-29T04:24:27.254Z,65.07
2022-07-29T04:26:55.664Z,65.27
2022-07-29T04:29:23.490Z,64.62
2022-07-29T04:31:51.310Z,64.09
2022-07-29T04:34:19.695Z,64.43
2022-07-29T04:36:49.263Z,65.17
2022-07-29T04:39:22.693Z,64.69
2022-07-29T04:41:52.545Z,65.20
2022-07-29T04:44:28.760Z,65.93
2022-07-29T04:46:57.963Z,66.31
2022-07-29T04:49:25.989Z,66.67
2022-07-29T04:51:55.415Z,66.62
2022-07-29T04:54:23.392Z,66.93
2022-07-29T04:56:54.918Z,66.33
2022-07-29T04:59:22.769Z,66.02
2022-07-29T05:01:50.695Z,65.83
2022-07-29T05:04:19.130Z,65.91
2022-07-29T05:06:47.477Z,65.29
2022-07-29T05:09:17.049Z,65.69
2022-07-29T05:11:44.906Z,65.44
2022-07-29T05:14:12.990Z,66.39
2022-07-29T05:16:41.237Z,66.48
2022-07-29T05:19:13.968Z,66.47
2022-07-29T05:21:42.389Z,66.21
2022-07-29T05:24:10.282Z,65.89
2022-07-29T05:26:39.671Z,65.83
2022-07-29T05:29:07.685Z,66.12
2022-07-29T05:31:55.503Z,66.09
2022-07-29T05:34:23.425Z,66.34
2022-07-29T05:36:51.853Z,66.61
2022-07-29T05:39:19.989Z,66.26
2022-07-29T05:41:51.977Z,67.00
2022-07-29T05:44:20.063Z,66.64
2022-07-29T05:46:47.995Z,66.61
2022-07-29T05:49:22.972Z,66.60
2022-07-29T05:51:55.229Z,66.48
2022-07-29T05:54:23.060Z,66.32
2022-07-29T05:56:55.366Z,65.99
2022-07-29T05:59:27.078Z,66.17
2022-07-29T06:01:58.148Z,66.11
2022-07-29T06:04:26.399Z,66.05
2022-07-29T06:06:54.341Z,65.88
2022-07-29T06:09:22.129Z,66.12
2022-07-29T06:11:49.908Z,66.01
2022-07-29T06:14:19.504Z,66.09
2022-07-29T06:16:47.938Z,65.76
2022-07-29T06:19:15.804Z,65.71
2022-07-29T06:21:44.475Z,66.00
2022-07-29T06:24:13.304Z,65.94
2022-07-29T06:26:41.847Z,65.79
2022-07-29T06:29:11.563Z,65.69
2022-07-29T06:31:41.454Z,65.88
2022-07-29T06:34:09.319Z,66.01
2022-07-29T06:36:37.907Z,66.09
2022-07-29T06:39:07.886Z,66.23
2022-07-29T06:41:36.496Z,66.74
2022-07-29T06:44:10.920Z,66.33
2022-07-29T06:46:40.420Z,66.41
2022-07-29T06:49:08.597Z,66.81
2022-07-29T06:51:36.957Z,66.67
2022-07-29T06:54:06.547Z,66.47
2022-07-29T06:56:39.163Z,66.10
2022-07-29T06:59:09.202Z,66.00
2022-07-29T07:01:38.198Z,65.65
2022-07-29T07:04:07.513Z,65.27
2022-07-29T07:06:35.238Z,64.60
2022-07-29T07:09:03.590Z,62.23
2022-07-29T07:11:31.574Z,61.46
2022-07-29T07:14:03.099Z,61.08
2022-07-29T07:16:32.404Z,60.36
2022-07-29T07:19:00.465Z,56.87
2022-07-29T07:21:30.618Z,56.60
2022-07-29T07:23:58.962Z,54.80
2022-07-29T07:26:27.332Z,50.73
2022-07-29T07:28:55.357Z,50.75
2022-07-29T07:31:23.380Z,50.12
2022-07-29T07:33:52.601Z,47.05
2022-07-29T07:36:20.435Z,48.30
2022-07-29T07:38:49.906Z,49.44
2022-07-29T07:41:17.907Z,49.04
2022-07-29T07:43:45.763Z,48.26
2022-07-29T07:46:16.645Z,50.07
2022-07-29T07:48:44.533Z,48.18
2022-07-29T07:51:12.661Z,47.50
2022-07-29T07:53:40.511Z,48.32
2022-07-29T07:56:12.970Z,48.37
2022-07-29T07:58:41.113Z,50.19
2022-07-29T08:01:10.127Z,50.16
2022-07-29T08:03:38.415Z,51.02
2022-07-29T08:06:06.850Z,49.11
2022-07-29T08:08:34.870Z,49.33
2022-07-29T08:11:09.081Z,49.82
2022-07-29T08:13:40.116Z,52.12
2022-07-29T08:16:16.336Z,51.08
2022-07-29T08:18:45.778Z,51.89
2022-07-29T08:21:15.220Z,49.16
2022-07-29T08:23:52.989Z,48.83
2022-07-29T08:26:29.225Z,49.76
2022-07-29T08:28:58.428Z,52.11
2022-07-29T08:31:26.295Z,53.48
2022-07-29T08:33:54.233Z,54.73
2022-07-29T08:36:22.894Z,55.36
2022-07-29T08:38:51.888Z,55.71
2022-07-29T08:41:20.351Z,55.62
2022-07-29T08:43:48.481Z,55.73
2022-07-29T08:46:18.480Z,55.88
2022-07-29T08:48:46.584Z,56.31
2022-07-29T08:51:16.204Z,56.28
2022-07-29T08:53:45.705Z,56.34
2022-07-29T08:56:14.630Z,56.52
2022-07-29T08:58:45.711Z,56.42
2022-07-29T09:01:35.852Z,56.11
2022-07-29T09:04:14.293Z,56.06
2022-07-29T09:06:46.355Z,55.21
2022-07-29T09:09:16.572Z,54.91
2022-07-29T09:11:45.225Z,54.25
2022-07-29T09:14:14.992Z,53.50
2022-07-29T09:16:55.915Z,52.90
2022-07-29T09:19:26.615Z,50.25
2022-07-29T09:22:03.231Z,50.03
2022-07-29T09:24:43.838Z,50.31
2022-07-29T09:27:20.313Z,50.36
2022-07-29T09:29:48.220Z,48.83
2022-07-29T09:32:17.410Z,47.03
2022-07-29T09:34:45.249Z,44.30
2022-07-29T09:37:13.193Z,42.56
2022-07-29T09:39:46.642Z,42.08
2022-07-29T09:42:15.927Z,42.90
2022-07-29T09:44:46.805Z,45.43
2022-07-29T09:47:14.737Z,43.64
2022-07-29T09:49:59.079Z,43.79
2022-07-29T09:52:28.007Z,42.71
2022-07-29T09:55:06.733Z,41.47
2022-07-29T09:57:34.584Z,40.87
2022-07-29T10:00:06.363Z,42.67
2022-07-29T10:02:41.172Z,42.05
2022-07-29T10:05:19.668Z,40.86
2022-07-29T10:07:51.885Z,42.18
2022-07-29T10:10:23.579Z,42.86
2022-07-29T10:12:56.851Z,45.53
2022-07-29T10:15:26.613Z,46.29
2022-07-29T10:17:56.008Z,45.85
2022-07-29T10:20:26.049Z,44.17
2022-07-29T10:22:54.700Z,43.52
2022-07-29T10:25:25.415Z,43.84
2022-07-29T10:27:54.238Z,45.11
2022-07-29T10:30:23.530Z,43.68
2022-07-29T10:33:13.423Z,42.62
2022-07-29T10:36:04.086Z,42.95
2022-07-29T10:38:53.894Z,40.60
2022-07-29T10:41:44.679Z,41.26
2022-07-29T10:47:05.908Z,40.20
2022-07-29T10:49:33.825Z,39.93
2022-07-29T10:52:08.203Z,40.39
2022-07-29T10:54:51.514Z,40.82
2022-07-29T10:57:25.614Z,41.39
2022-07-29T11:00:32.372Z,42.57
2022-07-29T11:03:04.844Z,42.40
2022-07-29T11:05:56.341Z,41.29
2022-07-29T11:08:29.065Z,41.52
2022-07-29T11:11:37.810Z,41.48
2022-07-29T11:14:05.907Z,39.93
2022-07-29T11:17:08.113Z,39.05
2022-07-29T11:19:40.106Z,38.14
2022-07-29T11:22:10.386Z,39.62
2022-07-29T11:24:50.134Z,38.54
2022-07-29T11:27:20.951Z,39.45
2022-07-29T11:29:56.863Z,38.59
2022-07-29T11:32:29.297Z,39.43
2022-07-29T11:35:14.916Z,39.51
2022-07-29T11:37:52.625Z,38.72
2022-07-29T11:40:25.282Z,38.29
2022-07-29T11:42:55.024Z,38.89
2022-07-29T11:45:44.095Z,38.80
2022-07-29T11:48:28.864Z,36.83
2022-07-29T11:50:59.117Z,36.40
2022-07-29T11:53:28.996Z,36.97
2022-07-29T11:56:02.831Z,35.89
2022-07-29T11:58:32.193Z,37.55
2022-07-29T12:03:48.900Z,36.78
2022-07-29T12:06:18.329Z,37.33
2022-07-29T12:07:02.432Z,36.20
2022-07-29T12:09:08.808Z,35.94
2022-07-29T12:11:55.344Z,36.41
2022-07-29T12:14:27.768Z,38.90
2022-07-29T12:16:56.041Z,37.04
2022-07-29T12:19:24.291Z,37.03
2022-07-29T12:21:56.780Z,38.92
2022-07-29T12:24:27.615Z,38.10
2022-07-29T12:26:58.562Z,40.02
2022-07-29T12:29:33.750Z,40.60
2022-07-29T12:32:05.329Z,38.60
2022-07-29T12:34:34.314Z,39.32
2022-07-29T12:37:02.447Z,39.12
2022-07-29T12:39:32.367Z,38.60
2022-07-29T12:42:04.746Z,38.50
2022-07-29T12:44:46.163Z,39.21
2022-07-29T12:47:14.014Z,38.89
2022-07-29T12:49:42.156Z,38.93
2022-07-29T12:52:30.054Z,40.25
2022-07-29T12:54:58.673Z,43.30
2022-07-29T12:57:27.842Z,41.80
2022-07-29T13:00:08.971Z,40.02
2022-07-29T13:02:37.590Z,41.03
2022-07-29T13:05:07.218Z,40.78
2022-07-29T13:07:55.658Z,40.50
2022-07-29T13:10:25.757Z,39.46
2022-07-29T13:13:11.384Z,41.66
2022-07-29T13:15:40.304Z,42.55
2022-07-29T13:18:28.803Z,41.79
2022-07-29T13:20:57.494Z,41.50
2022-07-29T13:23:25.712Z,40.50
2022-07-29T13:25:53.496Z,42.19
2022-07-29T13:28:24.452Z,43.35
2022-07-29T13:30:52.299Z,43.71
2022-07-29T13:33:20.166Z,42.98
2022-07-29T13:35:48.439Z,42.32
2022-07-29T13:38:16.495Z,40.79
2022-07-29T13:40:44.652Z,41.28
2022-07-29T13:43:12.847Z,40.20
2022-07-29T13:45:42.186Z,40.12
2022-07-29T13:48:10.100Z,41.37
2022-07-29T13:50:37.875Z,42.99
2022-07-29T13:53:05.673Z,42.35
2022-07-29T13:55:33.541Z,41.30
2022-07-29T13:58:02.088Z,42.87
2022-07-29T14:00:32.184Z,42.73
2022-07-29T14:03:01.482Z,42.67
2022-07-29T14:05:29.377Z,43.21
2022-07-29T14:07:57.170Z,42.66
2022-07-29T14:10:24.998Z,42.66
2022-07-29T14:12:52.938Z,43.34
2022-07-29T14:15:21.253Z,43.89
2022-07-29T14:17:49.099Z,44.31
2022-07-29T14:20:18.962Z,43.96
2022-07-29T14:22:46.785Z,44.23
2022-07-29T14:25:15.737Z,44.59
2022-07-29T14:27:44.535Z,44.52
2022-07-29T14:30:12.555Z,45.10
2022-07-29T14:32:40.541Z,44.53
2022-07-29T14:35:09.795Z,43.93
2022-07-29T14:37:40.364Z,44.42
2022-07-29T14:40:09.920Z,46.13
2022-07-29T14:42:38.455Z,45.68
2022-07-29T14:45:07.790Z,45.32
2022-07-29T14:47:36.044Z,45.74
2022-07-29T14:50:04.551Z,45.08
2022-07-29T14:52:32.559Z,46.08
2022-07-29T14:55:01.792Z,45.84
2022-07-29T14:57:29.660Z,46.98
2022-07-29T14:59:57.807Z,47.00
2022-07-29T15:02:45.778Z,46.84
2022-07-29T15:05:13.569Z,47.03
2022-07-29T15:07:41.510Z,46.35
2022-07-29T15:10:10.902Z,47.27
2022-07-29T15:12:42.572Z,47.95
2022-07-29T15:15:11.043Z,49.33
2022-07-29T15:17:38.852Z,49.40
2022-07-29T15:20:07.742Z,48.47
2022-07-29T15:22:35.389Z,48.31
2022-07-29T15:25:03.203Z,48.39
2022-07-29T15:27:32.668Z,48.66
2022-07-29T15:30:00.668Z,49.00
2022-07-29T15:32:28.528Z,48.93
2022-07-29T15:34:56.350Z,49.24
2022-07-29T15:37:24.176Z,49.27
2022-07-29T15:39:52.038Z,49.14
2022-07-29T15:42:19.836Z,48.55
2022-07-29T15:44:48.993Z,48.39
2022-07-29T15:47:16.895Z,48.16
2022-07-29T15:49:47.721Z,48.30
2022-07-29T15:52:25.314Z,48.09
2022-07-29T15:54:54.887Z,47.66
2022-07-29T15:57:23.173Z,47.26
2022-07-29T15:59:52.796Z,47.10
2022-07-29T16:02:20.800Z,47.40
2022-07-29T16:04:48.636Z,47.86
2022-07-29T16:07:16.798Z,48.02
2022-07-29T16:09:50.878Z,48.02
2022-07-29T16:12:22.449Z,47.27
2022-07-29T16:14:52.079Z,47.09
2022-07-29T16:17:20.598Z,47.32
2022-07-29T16:19:48.403Z,47.33
2022-07-29T16:22:16.515Z,47.64
2022-07-29T16:24:45.156Z,47.07
2022-07-29T16:27:12.992Z,47.30
2022-07-29T16:29:40.816Z,47.34
2022-07-29T16:32:10.104Z,47.54
2022-07-29T16:34:38.026Z,47.77
2022-07-29T16:37:05.953Z,47.77
2022-07-29T16:39:33.824Z,47.84
2022-07-29T16:42:04.103Z,47.52
2022-07-29T16:44:34.768Z,46.84
2022-07-29T16:47:03.125Z,46.73
2022-07-29T16:49:32.695Z,46.98
2022-07-29T16:52:00.634Z,47.20
2022-07-29T16:54:28.973Z,47.48
2022-07-29T16:56:57.142Z,47.61
2022-07-29T16:59:25.483Z,47.79
2022-07-29T17:01:53.367Z,48.10
2022-07-29T17:04:22.974Z,48.75
2022-07-29T17:06:52.493Z,49.44
2022-07-29T17:09:21.058Z,49.73
2022-07-29T17:11:54.923Z,49.61
2022-07-29T17:14:25.512Z,49.71
2022-07-29T17:17:01.054Z,49.95
2022-07-29T17:19:30.935Z,50.35
2022-07-29T17:22:10.154Z,50.54
2022-07-29T17:24:40.939Z,50.92
2022-07-29T17:27:09.100Z,50.59
2022-07-29T17:29:36.875Z,50.79
2022-07-29T17:32:07.794Z,50.94
2022-07-29T17:34:36.285Z,51.90
2022-07-29T17:37:05.973Z,52.39
2022-07-29T17:39:35.111Z,52.28
2022-07-29T17:42:03.128Z,52.37
2022-07-29T17:44:31.394Z,52.39
2022-07-29T17:47:00.697Z,52.26
2022-07-29T17:49:29.213Z,52.36
2022-07-29T17:52:00.741Z,52.33
2022-07-29T17:54:30.373Z,52.45
2022-07-29T17:56:58.608Z,52.45
2022-07-29T17:59:27.070Z,52.43
2022-07-29T18:01:54.984Z,52.24
2022-07-29T18:04:23.588Z,52.11
2022-07-29T18:06:51.661Z,52.01
2022-07-29T18:09:19.851Z,52.10
2022-07-29T18:11:49.059Z,52.13
2022-07-29T18:14:16.982Z,52.14
2022-07-29T18:16:46.646Z,52.59
2022-07-29T18:19:14.556Z,52.41
2022-07-29T18:21:51.134Z,52.36
2022-07-29T18:24:22.836Z,51.63
2022-07-29T18:26:52.062Z,51.92
2022-07-29T18:29:19.869Z,52.31
2022-07-29T18:31:47.775Z,52.28
2022-07-29T18:34:16.983Z,52.47
2022-07-29T18:36:45.747Z,52.22
2022-07-29T18:39:19.158Z,51.70
2022-07-29T18:41:50.622Z,51.22
2022-07-29T18:44:21.822Z,51.38
2022-07-29T18:46:50.641Z,51.67
2022-07-29T18:49:18.889Z,51.32
2022-07-29T18:51:46.851Z,51.33
2022-07-29T18:54:14.825Z,51.92
2022-07-29T18:56:42.755Z,52.52
2022-07-29T18:59:11.407Z,52.80
2022-07-29T19:01:40.737Z,53.00
2022-07-29T19:04:08.617Z,53.28
2022-07-29T19:06:36.477Z,53.26
2022-07-29T19:09:04.606Z,53.50
2022-07-29T19:11:32.457Z,54.02
2022-07-29T19:14:00.364Z,54.24
2022-07-29T19:16:28.451Z,54.49
2022-07-29T19:18:57.708Z,54.91
2022-07-29T19:21:25.903Z,55.14
2022-07-29T19:24:05.996Z,55.19
2022-07-29T19:26:39.219Z,55.83
2022-07-29T19:29:07.174Z,55.92
2022-07-29T19:31:35.117Z,58.74
2022-07-29T19:34:04.610Z,60.49
2022-07-29T19:36:32.472Z,60.29
2022-07-29T19:39:00.520Z,59.37
2022-07-29T19:41:28.839Z,59.46
2022-07-29T19:43:56.724Z,59.91
2022-07-29T19:46:28.677Z,59.38
2022-07-29T19:48:57.507Z,60.20
2022-07-29T19:51:27.029Z,60.35
2022-07-29T19:53:54.946Z,60.02
2022-07-29T19:56:25.284Z,59.68
2022-07-29T19:58:53.221Z,60.94
2022-07-29T20:01:21.481Z,61.54
2022-07-29T20:03:49.396Z,61.22
2022-07-29T20:06:17.260Z,61.43
2022-07-29T20:08:46.432Z,61.64
2022-07-29T20:11:14.294Z,61.72
2022-07-29T20:13:42.090Z,61.93
2022-07-29T20:16:10.025Z,61.25
2022-07-29T20:18:37.938Z,61.41
2022-07-29T20:21:05.884Z,61.87
2022-07-29T20:23:33.816Z,61.41
2022-07-29T20:26:06.111Z,61.32
2022-07-29T20:28:37.107Z,62.00
2022-07-29T20:31:05.013Z,61.89
2022-07-29T20:33:32.918Z,61.66
2022-07-29T20:36:00.760Z,61.91
2022-07-29T20:38:30.610Z,61.77
2022-07-29T20:40:58.727Z,61.89
2022-07-29T20:43:28.165Z,62.01
2022-07-29T20:45:56.132Z,61.63
2022-07-29T20:48:24.257Z,61.72
2022-07-29T20:50:52.897Z,61.78
2022-07-29T20:53:20.937Z,61.75
2022-07-29T20:55:48.844Z,62.19
2022-07-29T20:58:16.649Z,61.90
2022-07-29T21:00:45.922Z,62.18
2022-07-29T21:03:14.074Z,62.37
2022-07-29T21:05:43.899Z,62.74
2022-07-29T21:08:12.373Z,62.56
2022-07-29T21:10:40.243Z,62.60
2022-07-29T21:13:08.058Z,62.57
2022-07-29T21:15:36.263Z,61.82
2022-07-29T21:18:09.319Z,61.86
2022-07-29T21:20:37.183Z,62.66
2022-07-29T21:23:05.078Z,62.19
2022-07-29T21:25:34.319Z,61.48
2022-07-29T21:28:19.735Z,61.64
2022-07-29T21:30:47.605Z,61.75
2022-07-29T21:33:16.979Z,62.59
2022-07-29T21:36:01.765Z,60.69
2022-07-29T21:38:33.360Z,59.94
2022-07-29T21:41:01.905Z,60.54
2022-07-29T21:43:29.799Z,60.85
2022-07-29T21:45:58.223Z,61.22
2022-07-29T21:48:29.309Z,61.61
2022-07-29T21:50:57.725Z,62.17
2022-07-29T21:53:27.787Z,62.01
2022-07-29T21:55:55.700Z,62.48
2022-07-29T21:58:24.645Z,62.84
2022-07-29T22:00:52.732Z,63.00
2022-07-29T22:03:20.753Z,63.14
2022-07-29T22:05:49.993Z,63.30
2022-07-29T22:08:17.824Z,63.42
2022-07-29T22:10:45.622Z,63.70
2022-07-29T22:13:13.453Z,64.29
2022-07-29T22:15:46.685Z,64.45
2022-07-29T22:18:20.420Z,64.51
2022-07-29T22:20:50.174Z,64.95
2022-07-29T22:23:18.109Z,64.67
2022-07-29T22:25:45.943Z,64.51
2022-07-29T22:28:13.804Z,64.33
2022-07-29T22:30:41.772Z,64.84
2022-07-29T22:33:09.623Z,64.77
2022-07-29T22:35:48.867Z,65.14
2022-07-29T22:38:18.875Z,65.00
2022-07-29T22:40:48.763Z,65.46
2022-07-29T22:43:18.842Z,65.71
2022-07-29T22:45:46.798Z,65.99
2022-07-29T22:48:14.691Z,66.33
2022-07-29T22:50:42.816Z,66.58
2022-07-29T22:53:10.908Z,66.93
2022-07-29T22:55:40.191Z,67.16
2022-07-29T22:58:08.096Z,67.14
2022-07-29T23:00:37.305Z,67.53
2022-07-29T23:03:04.947Z,67.05
2022-07-29T23:05:33.426Z,66.42
2022-07-29T23:08:01.270Z,66.58
2022-07-29T23:10:29.651Z,66.23
2022-07-29T23:12:58.856Z,66.25
2022-07-29T23:15:26.755Z,66.63
2022-07-29T23:17:54.582Z,67.05
2022-07-29T23:20:22.558Z,67.32
2022-07-29T23:22:50.338Z,67.29
2022-07-29T23:25:18.241Z,67.57
2022-07-29T23:27:46.140Z,67.20
2022-07-29T23:30:15.512Z,66.92
2022-07-29T23:32:43.351Z,67.26
2022-07-29T23:35:11.495Z,67.57
2022-07-29T23:37:39.705Z,67.54
2022-07-29T23:40:13.996Z,67.51
2022-07-29T23:42:43.548Z,67.79
2022-07-29T23:45:12.626Z,67.77
2022-07-29T23:47:42.955Z,68.13
2022-07-29T23:50:13.017Z,68.25
2022-07-29T23:52:41.338Z,68.61
2022-07-29T23:55:36.479Z,71.01
2022-07-29T23:57:57.317Z,68.46
